sensor_id;sensor_type;location;lat;lon;timestamp;P1;durP1;ratioP1;P2;durP2;ratioP2
21480;SDS011;10902;48.158;8.634;2024-02-28T00:01:31;36.45;;;23.25;;
21480;SDS011;10902;48.158;8.634;2024-02-28T00:04:16;38.10;;;23.65;;
21480;SDS011;10902;48.158;8.634;2024-02-28T00:07:02;38.90;;;23.75;;
21480;SDS011;10902;48.158;8.634;2024-02-28T00:09:48;38.42;;;23.73;;
21480;SDS011;10902;48.158;8.634;2024-02-28T00:12:33;36.65;;;22.80;;
21480;SDS011;10902;48.158;8.634;2024-02-28T00:15:19;35.72;;;23.58;;
21480;SDS011;10902;48.158;8.634;2024-02-28T00:18:05;40.17;;;25.05;;
21480;SDS011;10902;48.158;8.634;2024-02-28T00:20:50;38.78;;;25.63;;
21480;SDS011;10902;48.158;8.634;2024-02-28T00:23:36;36.30;;;24.73;;
21480;SDS011;10902;48.158;8.634;2024-02-28T00:26:21;35.53;;;23.25;;
21480;SDS011;10902;48.158;8.634;2024-02-28T00:29:07;39.13;;;24.63;;
21480;SDS011;10902;48.158;8.634;2024-02-28T00:31:53;36.92;;;23.80;;
21480;SDS011;10902;48.158;8.634;2024-02-28T00:34:39;37.85;;;24.60;;
21480;SDS011;10902;48.158;8.634;2024-02-28T00:37:24;39.70;;;24.65;;
21480;SDS011;10902;48.158;8.634;2024-02-28T00:40:10;36.80;;;23.08;;
21480;SDS011;10902;48.158;8.634;2024-02-28T00:42:56;38.22;;;22.95;;
21480;SDS011;10902;48.158;8.634;2024-02-28T00:45:42;38.45;;;23.75;;
21480;SDS011;10902;48.158;8.634;2024-02-28T00:48:29;39.05;;;23.80;;
21480;SDS011;10902;48.158;8.634;2024-02-28T00:51:14;40.90;;;25.40;;
21480;SDS011;10902;48.158;8.634;2024-02-28T00:54:00;42.00;;;25.42;;
21480;SDS011;10902;48.158;8.634;2024-02-28T00:56:46;48.00;;;25.80;;
21480;SDS011;10902;48.158;8.634;2024-02-28T00:59:31;43.95;;;27.02;;
21480;SDS011;10902;48.158;8.634;2024-02-28T01:02:17;42.85;;;24.60;;
21480;SDS011;10902;48.158;8.634;2024-02-28T01:05:03;41.92;;;24.73;;
21480;SDS011;10902;48.158;8.634;2024-02-28T01:07:48;40.92;;;25.77;;
21480;SDS011;10902;48.158;8.634;2024-02-28T01:10:34;41.75;;;27.02;;
21480;SDS011;10902;48.158;8.634;2024-02-28T01:13:20;41.53;;;24.67;;
21480;SDS011;10902;48.158;8.634;2024-02-28T01:16:06;43.13;;;24.92;;
21480;SDS011;10902;48.158;8.634;2024-02-28T01:18:51;43.70;;;25.75;;
21480;SDS011;10902;48.158;8.634;2024-02-28T01:21:38;41.88;;;25.63;;
21480;SDS011;10902;48.158;8.634;2024-02-28T01:24:24;41.35;;;24.80;;
21480;SDS011;10902;48.158;8.634;2024-02-28T01:27:10;43.20;;;26.05;;
21480;SDS011;10902;48.158;8.634;2024-02-28T01:29:55;40.45;;;24.17;;
21480;SDS011;10902;48.158;8.634;2024-02-28T01:32:41;40.00;;;25.02;;
21480;SDS011;10902;48.158;8.634;2024-02-28T01:35:28;41.33;;;25.83;;
21480;SDS011;10902;48.158;8.634;2024-02-28T01:38:13;37.90;;;23.27;;
21480;SDS011;10902;48.158;8.634;2024-02-28T01:40:59;43.42;;;25.55;;
21480;SDS011;10902;48.158;8.634;2024-02-28T01:43:44;39.88;;;24.33;;
21480;SDS011;10902;48.158;8.634;2024-02-28T01:46:30;41.63;;;25.33;;
21480;SDS011;10902;48.158;8.634;2024-02-28T01:49:16;39.65;;;24.08;;
21480;SDS011;10902;48.158;8.634;2024-02-28T01:52:02;39.17;;;24.35;;
21480;SDS011;10902;48.158;8.634;2024-02-28T01:54:49;41.13;;;25.27;;
21480;SDS011;10902;48.158;8.634;2024-02-28T01:57:34;44.05;;;25.35;;
21480;SDS011;10902;48.158;8.634;2024-02-28T02:00:22;43.03;;;25.65;;
21480;SDS011;10902;48.158;8.634;2024-02-28T02:03:10;39.17;;;24.95;;
21480;SDS011;10902;48.158;8.634;2024-02-28T02:05:56;40.03;;;24.85;;
21480;SDS011;10902;48.158;8.634;2024-02-28T02:08:41;42.30;;;25.63;;
21480;SDS011;10902;48.158;8.634;2024-02-28T02:11:28;38.13;;;24.58;;
21480;SDS011;10902;48.158;8.634;2024-02-28T02:14:14;42.22;;;24.75;;
21480;SDS011;10902;48.158;8.634;2024-02-28T02:16:59;40.15;;;23.27;;
21480;SDS011;10902;48.158;8.634;2024-02-28T02:19:45;42.42;;;25.30;;
21480;SDS011;10902;48.158;8.634;2024-02-28T02:22:37;36.90;;;23.70;;
21480;SDS011;10902;48.158;8.634;2024-02-28T02:25:26;37.67;;;23.48;;
21480;SDS011;10902;48.158;8.634;2024-02-28T02:28:11;46.55;;;27.88;;
21480;SDS011;10902;48.158;8.634;2024-02-28T02:30:57;43.42;;;25.45;;
21480;SDS011;10902;48.158;8.634;2024-02-28T02:33:42;43.20;;;26.35;;
21480;SDS011;10902;48.158;8.634;2024-02-28T02:36:28;42.28;;;25.63;;
21480;SDS011;10902;48.158;8.634;2024-02-28T02:39:14;38.55;;;24.48;;
21480;SDS011;10902;48.158;8.634;2024-02-28T02:41:59;39.47;;;25.15;;
21480;SDS011;10902;48.158;8.634;2024-02-28T02:44:45;39.65;;;25.65;;
21480;SDS011;10902;48.158;8.634;2024-02-28T02:47:30;40.25;;;24.58;;
21480;SDS011;10902;48.158;8.634;2024-02-28T02:50:16;36.05;;;22.40;;
21480;SDS011;10902;48.158;8.634;2024-02-28T02:53:02;38.80;;;24.15;;
21480;SDS011;10902;48.158;8.634;2024-02-28T02:55:48;38.70;;;23.27;;
21480;SDS011;10902;48.158;8.634;2024-02-28T02:58:34;35.97;;;22.20;;
21480;SDS011;10902;48.158;8.634;2024-02-28T03:01:19;37.17;;;23.65;;
21480;SDS011;10902;48.158;8.634;2024-02-28T03:04:05;38.22;;;23.90;;
21480;SDS011;10902;48.158;8.634;2024-02-28T03:06:50;39.95;;;24.42;;
21480;SDS011;10902;48.158;8.634;2024-02-28T03:09:36;36.92;;;22.38;;
21480;SDS011;10902;48.158;8.634;2024-02-28T03:12:21;39.15;;;23.05;;
21480;SDS011;10902;48.158;8.634;2024-02-28T03:15:07;40.15;;;25.17;;
21480;SDS011;10902;48.158;8.634;2024-02-28T03:17:53;37.25;;;23.88;;
21480;SDS011;10902;48.158;8.634;2024-02-28T03:20:39;35.67;;;22.25;;
21480;SDS011;10902;48.158;8.634;2024-02-28T03:23:24;37.92;;;22.63;;
21480;SDS011;10902;48.158;8.634;2024-02-28T03:26:10;34.53;;;22.83;;
21480;SDS011;10902;48.158;8.634;2024-02-28T03:28:56;36.45;;;23.23;;
21480;SDS011;10902;48.158;8.634;2024-02-28T03:31:41;37.40;;;23.73;;
21480;SDS011;10902;48.158;8.634;2024-02-28T03:34:27;37.30;;;23.98;;
21480;SDS011;10902;48.158;8.634;2024-02-28T03:37:13;38.17;;;23.20;;
21480;SDS011;10902;48.158;8.634;2024-02-28T03:39:58;37.58;;;22.70;;
21480;SDS011;10902;48.158;8.634;2024-02-28T03:42:44;34.75;;;22.23;;
21480;SDS011;10902;48.158;8.634;2024-02-28T03:45:29;32.20;;;19.73;;
21480;SDS011;10902;48.158;8.634;2024-02-28T03:48:15;33.58;;;20.98;;
21480;SDS011;10902;48.158;8.634;2024-02-28T03:51:00;37.13;;;23.05;;
21480;SDS011;10902;48.158;8.634;2024-02-28T03:53:46;35.10;;;22.00;;
21480;SDS011;10902;48.158;8.634;2024-02-28T03:56:32;38.83;;;23.02;;
21480;SDS011;10902;48.158;8.634;2024-02-28T03:59:17;43.03;;;25.08;;
21480;SDS011;10902;48.158;8.634;2024-02-28T04:02:03;41.00;;;25.05;;
21480;SDS011;10902;48.158;8.634;2024-02-28T04:04:48;40.47;;;24.48;;
21480;SDS011;10902;48.158;8.634;2024-02-28T04:07:34;43.63;;;26.40;;
21480;SDS011;10902;48.158;8.634;2024-02-28T04:10:20;48.45;;;29.85;;
21480;SDS011;10902;48.158;8.634;2024-02-28T04:13:06;45.75;;;28.23;;
21480;SDS011;10902;48.158;8.634;2024-02-28T04:15:52;48.53;;;28.15;;
21480;SDS011;10902;48.158;8.634;2024-02-28T04:18:38;46.42;;;26.70;;
21480;SDS011;10902;48.158;8.634;2024-02-28T04:21:23;48.95;;;29.42;;
21480;SDS011;10902;48.158;8.634;2024-02-28T04:24:09;47.83;;;27.23;;
21480;SDS011;10902;48.158;8.634;2024-02-28T04:26:55;47.78;;;28.15;;
21480;SDS011;10902;48.158;8.634;2024-02-28T04:29:43;41.63;;;25.65;;
21480;SDS011;10902;48.158;8.634;2024-02-28T04:32:29;44.28;;;27.20;;
21480;SDS011;10902;48.158;8.634;2024-02-28T04:35:14;48.33;;;28.30;;
21480;SDS011;10902;48.158;8.634;2024-02-28T04:38:03;42.85;;;25.15;;
21480;SDS011;10902;48.158;8.634;2024-02-28T04:40:49;44.45;;;26.38;;
21480;SDS011;10902;48.158;8.634;2024-02-28T04:43:34;44.03;;;25.83;;
21480;SDS011;10902;48.158;8.634;2024-02-28T04:46:20;47.10;;;27.25;;
21480;SDS011;10902;48.158;8.634;2024-02-28T04:49:06;48.88;;;28.27;;
21480;SDS011;10902;48.158;8.634;2024-02-28T04:51:54;43.13;;;28.13;;
21480;SDS011;10902;48.158;8.634;2024-02-28T04:54:40;45.60;;;27.23;;
21480;SDS011;10902;48.158;8.634;2024-02-28T04:57:26;44.25;;;27.02;;
21480;SDS011;10902;48.158;8.634;2024-02-28T05:00:12;43.85;;;27.35;;
21480;SDS011;10902;48.158;8.634;2024-02-28T05:02:57;45.03;;;25.67;;
21480;SDS011;10902;48.158;8.634;2024-02-28T05:05:43;43.80;;;24.70;;
21480;SDS011;10902;48.158;8.634;2024-02-28T05:08:29;51.25;;;29.02;;
21480;SDS011;10902;48.158;8.634;2024-02-28T05:11:14;44.05;;;26.90;;
21480;SDS011;10902;48.158;8.634;2024-02-28T05:14:00;45.83;;;25.73;;
21480;SDS011;10902;48.158;8.634;2024-02-28T05:16:48;43.95;;;25.45;;
21480;SDS011;10902;48.158;8.634;2024-02-28T05:19:34;42.92;;;25.85;;
21480;SDS011;10902;48.158;8.634;2024-02-28T05:22:19;43.45;;;25.38;;
21480;SDS011;10902;48.158;8.634;2024-02-28T05:25:05;43.78;;;26.63;;
21480;SDS011;10902;48.158;8.634;2024-02-28T05:27:51;41.70;;;25.95;;
21480;SDS011;10902;48.158;8.634;2024-02-28T05:30:37;42.28;;;25.30;;
21480;SDS011;10902;48.158;8.634;2024-02-28T05:33:22;45.80;;;28.00;;
21480;SDS011;10902;48.158;8.634;2024-02-28T05:36:08;44.88;;;26.08;;
21480;SDS011;10902;48.158;8.634;2024-02-28T05:38:55;41.35;;;25.83;;
21480;SDS011;10902;48.158;8.634;2024-02-28T05:41:41;40.10;;;25.90;;
21480;SDS011;10902;48.158;8.634;2024-02-28T05:44:27;45.28;;;26.13;;
21480;SDS011;10902;48.158;8.634;2024-02-28T05:47:13;44.05;;;26.05;;
21480;SDS011;10902;48.158;8.634;2024-02-28T05:49:59;43.20;;;25.70;;
21480;SDS011;10902;48.158;8.634;2024-02-28T05:52:44;44.55;;;26.15;;
21480;SDS011;10902;48.158;8.634;2024-02-28T05:55:30;46.50;;;27.48;;
21480;SDS011;10902;48.158;8.634;2024-02-28T05:58:16;43.08;;;27.10;;
21480;SDS011;10902;48.158;8.634;2024-02-28T06:01:01;42.72;;;24.70;;
21480;SDS011;10902;48.158;8.634;2024-02-28T06:03:48;44.72;;;25.77;;
21480;SDS011;10902;48.158;8.634;2024-02-28T06:06:33;40.55;;;24.95;;
21480;SDS011;10902;48.158;8.634;2024-02-28T06:09:19;45.10;;;26.52;;
21480;SDS011;10902;48.158;8.634;2024-02-28T06:12:04;39.70;;;23.13;;
21480;SDS011;10902;48.158;8.634;2024-02-28T06:14:50;42.65;;;25.33;;
21480;SDS011;10902;48.158;8.634;2024-02-28T06:17:36;39.80;;;23.58;;
21480;SDS011;10902;48.158;8.634;2024-02-28T06:20:21;39.90;;;23.50;;
21480;SDS011;10902;48.158;8.634;2024-02-28T06:23:07;34.75;;;21.40;;
21480;SDS011;10902;48.158;8.634;2024-02-28T06:25:52;42.22;;;24.50;;
21480;SDS011;10902;48.158;8.634;2024-02-28T06:28:38;38.45;;;24.02;;
21480;SDS011;10902;48.158;8.634;2024-02-28T06:31:24;39.67;;;23.83;;
21480;SDS011;10902;48.158;8.634;2024-02-28T06:34:09;39.92;;;23.70;;
21480;SDS011;10902;48.158;8.634;2024-02-28T06:36:55;40.78;;;24.30;;
21480;SDS011;10902;48.158;8.634;2024-02-28T06:39:41;38.58;;;22.30;;
21480;SDS011;10902;48.158;8.634;2024-02-28T06:42:27;40.63;;;22.05;;
21480;SDS011;10902;48.158;8.634;2024-02-28T06:45:13;40.08;;;23.67;;
21480;SDS011;10902;48.158;8.634;2024-02-28T06:47:59;35.75;;;20.73;;
21480;SDS011;10902;48.158;8.634;2024-02-28T06:50:45;36.05;;;21.65;;
21480;SDS011;10902;48.158;8.634;2024-02-28T06:53:30;38.15;;;23.25;;
21480;SDS011;10902;48.158;8.634;2024-02-28T06:56:16;35.53;;;21.30;;
21480;SDS011;10902;48.158;8.634;2024-02-28T06:59:01;34.70;;;21.95;;
21480;SDS011;10902;48.158;8.634;2024-02-28T07:01:48;34.00;;;20.77;;
21480;SDS011;10902;48.158;8.634;2024-02-28T07:04:34;32.28;;;20.30;;
21480;SDS011;10902;48.158;8.634;2024-02-28T07:07:20;31.58;;;20.23;;
21480;SDS011;10902;48.158;8.634;2024-02-28T07:10:06;34.63;;;21.10;;
21480;SDS011;10902;48.158;8.634;2024-02-28T07:12:52;33.30;;;19.92;;
21480;SDS011;10902;48.158;8.634;2024-02-28T07:15:37;35.28;;;22.17;;
21480;SDS011;10902;48.158;8.634;2024-02-28T07:18:25;35.28;;;21.73;;
21480;SDS011;10902;48.158;8.634;2024-02-28T07:21:10;33.40;;;20.02;;
21480;SDS011;10902;48.158;8.634;2024-02-28T07:23:56;35.30;;;20.55;;
21480;SDS011;10902;48.158;8.634;2024-02-28T07:26:41;36.45;;;20.92;;
21480;SDS011;10902;48.158;8.634;2024-02-28T07:29:27;34.13;;;19.92;;
21480;SDS011;10902;48.158;8.634;2024-02-28T07:32:13;35.60;;;21.15;;
21480;SDS011;10902;48.158;8.634;2024-02-28T07:34:58;34.17;;;20.70;;
21480;SDS011;10902;48.158;8.634;2024-02-28T07:37:44;32.78;;;21.55;;
21480;SDS011;10902;48.158;8.634;2024-02-28T07:40:29;33.78;;;20.48;;
21480;SDS011;10902;48.158;8.634;2024-02-28T07:43:15;33.10;;;20.63;;
21480;SDS011;10902;48.158;8.634;2024-02-28T07:46:00;34.38;;;20.20;;
21480;SDS011;10902;48.158;8.634;2024-02-28T07:48:46;34.65;;;21.75;;
21480;SDS011;10902;48.158;8.634;2024-02-28T07:51:32;34.65;;;21.20;;
21480;SDS011;10902;48.158;8.634;2024-02-28T07:54:17;34.25;;;20.58;;
21480;SDS011;10902;48.158;8.634;2024-02-28T07:57:03;32.53;;;20.17;;
21480;SDS011;10902;48.158;8.634;2024-02-28T07:59:49;34.80;;;20.35;;
21480;SDS011;10902;48.158;8.634;2024-02-28T08:02:35;34.03;;;20.77;;
21480;SDS011;10902;48.158;8.634;2024-02-28T08:05:21;36.38;;;21.95;;
21480;SDS011;10902;48.158;8.634;2024-02-28T08:08:07;34.03;;;21.27;;
21480;SDS011;10902;48.158;8.634;2024-02-28T08:10:53;36.13;;;21.10;;
21480;SDS011;10902;48.158;8.634;2024-02-28T08:13:39;33.03;;;19.88;;
21480;SDS011;10902;48.158;8.634;2024-02-28T08:16:25;33.65;;;19.80;;
21480;SDS011;10902;48.158;8.634;2024-02-28T08:19:10;36.30;;;21.75;;
21480;SDS011;10902;48.158;8.634;2024-02-28T08:21:56;35.90;;;20.88;;
21480;SDS011;10902;48.158;8.634;2024-02-28T08:24:41;36.17;;;21.08;;
21480;SDS011;10902;48.158;8.634;2024-02-28T08:27:27;32.55;;;19.30;;
21480;SDS011;10902;48.158;8.634;2024-02-28T08:30:13;31.83;;;19.35;;
21480;SDS011;10902;48.158;8.634;2024-02-28T08:32:58;32.03;;;20.02;;
21480;SDS011;10902;48.158;8.634;2024-02-28T08:35:44;31.15;;;17.75;;
21480;SDS011;10902;48.158;8.634;2024-02-28T08:38:29;30.63;;;18.63;;
21480;SDS011;10902;48.158;8.634;2024-02-28T08:41:15;32.97;;;20.25;;
21480;SDS011;10902;48.158;8.634;2024-02-28T08:44:02;31.92;;;18.13;;
21480;SDS011;10902;48.158;8.634;2024-02-28T08:46:48;29.67;;;17.42;;
21480;SDS011;10902;48.158;8.634;2024-02-28T08:49:33;30.02;;;19.30;;
21480;SDS011;10902;48.158;8.634;2024-02-28T08:52:20;29.30;;;17.42;;
21480;SDS011;10902;48.158;8.634;2024-02-28T08:55:06;28.55;;;17.60;;
21480;SDS011;10902;48.158;8.634;2024-02-28T08:57:51;30.25;;;19.35;;
21480;SDS011;10902;48.158;8.634;2024-02-28T09:00:37;32.63;;;19.35;;
21480;SDS011;10902;48.158;8.634;2024-02-28T09:03:23;32.63;;;20.25;;
21480;SDS011;10902;48.158;8.634;2024-02-28T09:06:08;31.40;;;18.67;;
21480;SDS011;10902;48.158;8.634;2024-02-28T09:08:54;34.90;;;19.60;;
21480;SDS011;10902;48.158;8.634;2024-02-28T09:11:39;32.58;;;19.70;;
21480;SDS011;10902;48.158;8.634;2024-02-28T09:14:25;30.25;;;18.65;;
21480;SDS011;10902;48.158;8.634;2024-02-28T09:17:11;31.20;;;18.08;;
21480;SDS011;10902;48.158;8.634;2024-02-28T09:19:57;30.02;;;19.25;;
21480;SDS011;10902;48.158;8.634;2024-02-28T09:22:42;30.50;;;18.98;;
21480;SDS011;10902;48.158;8.634;2024-02-28T09:25:28;33.78;;;19.50;;
21480;SDS011;10902;48.158;8.634;2024-02-28T09:28:15;31.27;;;18.42;;
21480;SDS011;10902;48.158;8.634;2024-02-28T09:31:01;30.23;;;18.55;;
21480;SDS011;10902;48.158;8.634;2024-02-28T09:33:46;31.55;;;20.15;;
21480;SDS011;10902;48.158;8.634;2024-02-28T09:36:39;28.92;;;17.52;;
21480;SDS011;10902;48.158;8.634;2024-02-28T09:39:26;31.25;;;19.33;;
21480;SDS011;10902;48.158;8.634;2024-02-28T09:42:12;32.90;;;19.17;;
21480;SDS011;10902;48.158;8.634;2024-02-28T09:45:00;30.23;;;17.83;;
21480;SDS011;10902;48.158;8.634;2024-02-28T09:47:46;32.40;;;18.83;;
21480;SDS011;10902;48.158;8.634;2024-02-28T09:50:32;34.40;;;20.35;;
21480;SDS011;10902;48.158;8.634;2024-02-28T09:53:18;28.25;;;17.90;;
21480;SDS011;10902;48.158;8.634;2024-02-28T09:56:04;34.25;;;20.45;;
21480;SDS011;10902;48.158;8.634;2024-02-28T09:58:51;28.50;;;18.17;;
21480;SDS011;10902;48.158;8.634;2024-02-28T10:01:43;31.23;;;18.92;;
21480;SDS011;10902;48.158;8.634;2024-02-28T10:04:32;30.45;;;18.25;;
21480;SDS011;10902;48.158;8.634;2024-02-28T10:07:19;31.40;;;18.13;;
21480;SDS011;10902;48.158;8.634;2024-02-28T10:10:05;31.83;;;19.48;;
21480;SDS011;10902;48.158;8.634;2024-02-28T10:12:53;30.10;;;17.70;;
21480;SDS011;10902;48.158;8.634;2024-02-28T10:15:38;29.25;;;18.45;;
21480;SDS011;10902;48.158;8.634;2024-02-28T10:18:25;32.60;;;19.60;;
21480;SDS011;10902;48.158;8.634;2024-02-28T10:21:11;30.77;;;19.33;;
21480;SDS011;10902;48.158;8.634;2024-02-28T10:24:03;29.23;;;18.83;;
21480;SDS011;10902;48.158;8.634;2024-02-28T10:26:49;30.52;;;18.63;;
21480;SDS011;10902;48.158;8.634;2024-02-28T10:29:41;29.27;;;18.33;;
21480;SDS011;10902;48.158;8.634;2024-02-28T10:32:29;30.83;;;19.88;;
21480;SDS011;10902;48.158;8.634;2024-02-28T10:35:14;29.02;;;18.80;;
21480;SDS011;10902;48.158;8.634;2024-02-28T10:38:02;29.92;;;18.30;;
21480;SDS011;10902;48.158;8.634;2024-02-28T10:40:48;26.23;;;16.33;;
21480;SDS011;10902;48.158;8.634;2024-02-28T10:43:36;28.52;;;17.05;;
21480;SDS011;10902;48.158;8.634;2024-02-28T10:46:23;25.13;;;15.75;;
21480;SDS011;10902;48.158;8.634;2024-02-28T10:49:09;27.13;;;16.38;;
21480;SDS011;10902;48.158;8.634;2024-02-28T10:51:56;24.50;;;16.27;;
21480;SDS011;10902;48.158;8.634;2024-02-28T10:54:44;24.77;;;17.00;;
21480;SDS011;10902;48.158;8.634;2024-02-28T10:57:36;26.88;;;17.48;;
21480;SDS011;10902;48.158;8.634;2024-02-28T11:00:23;25.30;;;17.00;;
21480;SDS011;10902;48.158;8.634;2024-02-28T11:03:09;29.23;;;19.63;;
21480;SDS011;10902;48.158;8.634;2024-02-28T11:05:56;29.00;;;19.38;;
21480;SDS011;10902;48.158;8.634;2024-02-28T11:08:45;27.45;;;18.42;;
21480;SDS011;10902;48.158;8.634;2024-02-28T11:11:31;24.20;;;17.02;;
21480;SDS011;10902;48.158;8.634;2024-02-28T11:14:17;24.35;;;15.63;;
21480;SDS011;10902;48.158;8.634;2024-02-28T11:17:07;22.35;;;14.85;;
21480;SDS011;10902;48.158;8.634;2024-02-28T11:19:53;22.67;;;15.63;;
21480;SDS011;10902;48.158;8.634;2024-02-28T11:22:39;23.52;;;15.65;;
21480;SDS011;10902;48.158;8.634;2024-02-28T11:25:25;24.25;;;15.63;;
21480;SDS011;10902;48.158;8.634;2024-02-28T11:28:11;25.35;;;16.70;;
21480;SDS011;10902;48.158;8.634;2024-02-28T11:30:56;23.70;;;16.05;;
21480;SDS011;10902;48.158;8.634;2024-02-28T11:33:42;24.30;;;16.55;;
21480;SDS011;10902;48.158;8.634;2024-02-28T11:36:27;21.23;;;15.07;;
21480;SDS011;10902;48.158;8.634;2024-02-28T11:39:14;21.63;;;14.35;;
21480;SDS011;10902;48.158;8.634;2024-02-28T11:42:10;21.67;;;14.68;;
21480;SDS011;10902;48.158;8.634;2024-02-28T11:44:59;21.38;;;14.23;;
21480;SDS011;10902;48.158;8.634;2024-02-28T11:47:48;19.83;;;13.35;;
21480;SDS011;10902;48.158;8.634;2024-02-28T11:50:34;21.20;;;13.93;;
21480;SDS011;10902;48.158;8.634;2024-02-28T11:53:24;22.42;;;15.05;;
21480;SDS011;10902;48.158;8.634;2024-02-28T11:56:11;20.40;;;14.02;;
21480;SDS011;10902;48.158;8.634;2024-02-28T11:59:02;21.42;;;14.98;;
21480;SDS011;10902;48.158;8.634;2024-02-28T12:01:49;22.08;;;14.15;;
21480;SDS011;10902;48.158;8.634;2024-02-28T12:04:36;18.55;;;13.68;;
21480;SDS011;10902;48.158;8.634;2024-02-28T12:07:22;20.17;;;14.00;;
21480;SDS011;10902;48.158;8.634;2024-02-28T12:10:08;22.60;;;14.57;;
21480;SDS011;10902;48.158;8.634;2024-02-28T12:12:58;19.58;;;14.07;;
21480;SDS011;10902;48.158;8.634;2024-02-28T12:15:44;20.00;;;14.65;;
21480;SDS011;10902;48.158;8.634;2024-02-28T12:18:31;23.38;;;15.48;;
21480;SDS011;10902;48.158;8.634;2024-02-28T12:21:17;19.25;;;13.63;;
21480;SDS011;10902;48.158;8.634;2024-02-28T12:24:03;18.85;;;13.55;;
21480;SDS011;10902;48.158;8.634;2024-02-28T12:26:52;19.52;;;13.52;;
21480;SDS011;10902;48.158;8.634;2024-02-28T12:29:38;19.63;;;13.20;;
21480;SDS011;10902;48.158;8.634;2024-02-28T12:32:23;18.75;;;12.80;;
21480;SDS011;10902;48.158;8.634;2024-02-28T12:35:09;18.77;;;13.05;;
21480;SDS011;10902;48.158;8.634;2024-02-28T12:37:54;19.77;;;14.00;;
21480;SDS011;10902;48.158;8.634;2024-02-28T12:40:40;17.60;;;13.43;;
21480;SDS011;10902;48.158;8.634;2024-02-28T12:43:27;19.42;;;13.20;;
21480;SDS011;10902;48.158;8.634;2024-02-28T12:46:14;18.77;;;13.48;;
21480;SDS011;10902;48.158;8.634;2024-02-28T12:49:00;20.10;;;13.70;;
21480;SDS011;10902;48.158;8.634;2024-02-28T12:51:45;22.05;;;14.48;;
21480;SDS011;10902;48.158;8.634;2024-02-28T12:54:33;20.92;;;14.02;;
21480;SDS011;10902;48.158;8.634;2024-02-28T12:57:19;19.75;;;14.35;;
21480;SDS011;10902;48.158;8.634;2024-02-28T13:00:05;22.50;;;14.20;;
21480;SDS011;10902;48.158;8.634;2024-02-28T13:02:53;23.52;;;16.45;;
21480;SDS011;10902;48.158;8.634;2024-02-28T13:05:40;20.73;;;14.75;;
21480;SDS011;10902;48.158;8.634;2024-02-28T13:08:25;23.85;;;15.88;;
21480;SDS011;10902;48.158;8.634;2024-02-28T13:11:11;20.60;;;14.52;;
21480;SDS011;10902;48.158;8.634;2024-02-28T13:13:57;21.20;;;14.07;;
21480;SDS011;10902;48.158;8.634;2024-02-28T13:16:42;19.00;;;13.80;;
21480;SDS011;10902;48.158;8.634;2024-02-28T13:19:29;21.50;;;13.80;;
21480;SDS011;10902;48.158;8.634;2024-02-28T13:22:14;20.55;;;13.45;;
21480;SDS011;10902;48.158;8.634;2024-02-28T13:25:00;18.17;;;13.02;;
21480;SDS011;10902;48.158;8.634;2024-02-28T13:27:46;19.60;;;13.43;;
21480;SDS011;10902;48.158;8.634;2024-02-28T13:30:32;17.33;;;12.73;;
21480;SDS011;10902;48.158;8.634;2024-02-28T13:33:20;18.25;;;12.98;;
21480;SDS011;10902;48.158;8.634;2024-02-28T13:36:05;18.13;;;12.95;;
21480;SDS011;10902;48.158;8.634;2024-02-28T13:38:51;17.45;;;13.23;;
21480;SDS011;10902;48.158;8.634;2024-02-28T13:41:39;16.98;;;12.93;;
21480;SDS011;10902;48.158;8.634;2024-02-28T13:44:24;19.02;;;13.73;;
21480;SDS011;10902;48.158;8.634;2024-02-28T13:47:11;19.17;;;13.52;;
21480;SDS011;10902;48.158;8.634;2024-02-28T13:49:58;22.55;;;14.40;;
21480;SDS011;10902;48.158;8.634;2024-02-28T13:52:44;20.90;;;14.68;;
21480;SDS011;10902;48.158;8.634;2024-02-28T13:55:29;23.25;;;16.52;;
21480;SDS011;10902;48.158;8.634;2024-02-28T13:58:15;21.92;;;15.07;;
21480;SDS011;10902;48.158;8.634;2024-02-28T14:01:03;23.33;;;16.10;;
21480;SDS011;10902;48.158;8.634;2024-02-28T14:03:51;19.80;;;13.80;;
21480;SDS011;10902;48.158;8.634;2024-02-28T14:06:37;20.95;;;14.35;;
21480;SDS011;10902;48.158;8.634;2024-02-28T14:09:23;17.98;;;13.43;;
21480;SDS011;10902;48.158;8.634;2024-02-28T14:12:08;17.90;;;13.07;;
21480;SDS011;10902;48.158;8.634;2024-02-28T14:14:54;18.95;;;13.63;;
21480;SDS011;10902;48.158;8.634;2024-02-28T14:17:40;19.75;;;13.25;;
21480;SDS011;10902;48.158;8.634;2024-02-28T14:20:25;16.40;;;12.15;;
21480;SDS011;10902;48.158;8.634;2024-02-28T14:23:12;16.48;;;11.70;;
21480;SDS011;10902;48.158;8.634;2024-02-28T14:25:58;17.17;;;12.63;;
21480;SDS011;10902;48.158;8.634;2024-02-28T14:28:43;16.13;;;11.95;;
21480;SDS011;10902;48.158;8.634;2024-02-28T14:31:29;19.08;;;13.05;;
21480;SDS011;10902;48.158;8.634;2024-02-28T14:34:15;16.00;;;11.65;;
21480;SDS011;10902;48.158;8.634;2024-02-28T14:37:00;15.57;;;12.15;;
21480;SDS011;10902;48.158;8.634;2024-02-28T14:39:46;14.68;;;11.38;;
21480;SDS011;10902;48.158;8.634;2024-02-28T14:42:32;17.98;;;12.85;;
21480;SDS011;10902;48.158;8.634;2024-02-28T14:45:18;14.82;;;11.40;;
21480;SDS011;10902;48.158;8.634;2024-02-28T14:48:04;15.15;;;11.75;;
21480;SDS011;10902;48.158;8.634;2024-02-28T14:50:50;16.17;;;12.32;;
21480;SDS011;10902;48.158;8.634;2024-02-28T14:53:36;15.77;;;10.75;;
21480;SDS011;10902;48.158;8.634;2024-02-28T14:56:22;14.02;;;10.82;;
21480;SDS011;10902;48.158;8.634;2024-02-28T14:59:07;17.85;;;11.70;;
21480;SDS011;10902;48.158;8.634;2024-02-28T15:01:53;18.15;;;12.40;;
21480;SDS011;10902;48.158;8.634;2024-02-28T15:04:39;17.63;;;11.73;;
21480;SDS011;10902;48.158;8.634;2024-02-28T15:07:25;15.00;;;11.40;;
21480;SDS011;10902;48.158;8.634;2024-02-28T15:10:10;17.23;;;11.63;;
21480;SDS011;10902;48.158;8.634;2024-02-28T15:12:56;15.02;;;10.90;;
21480;SDS011;10902;48.158;8.634;2024-02-28T15:15:41;15.20;;;11.10;;
21480;SDS011;10902;48.158;8.634;2024-02-28T15:18:27;14.90;;;11.10;;
21480;SDS011;10902;48.158;8.634;2024-02-28T15:21:12;15.18;;;11.07;;
21480;SDS011;10902;48.158;8.634;2024-02-28T15:23:58;16.33;;;12.02;;
21480;SDS011;10902;48.158;8.634;2024-02-28T15:26:44;17.70;;;12.13;;
21480;SDS011;10902;48.158;8.634;2024-02-28T15:29:29;15.70;;;12.10;;
21480;SDS011;10902;48.158;8.634;2024-02-28T15:32:15;15.50;;;11.30;;
21480;SDS011;10902;48.158;8.634;2024-02-28T15:35:00;20.92;;;14.35;;
21480;SDS011;10902;48.158;8.634;2024-02-28T15:37:46;16.67;;;11.45;;
21480;SDS011;10902;48.158;8.634;2024-02-28T15:40:31;14.55;;;11.20;;
21480;SDS011;10902;48.158;8.634;2024-02-28T15:43:17;17.55;;;12.25;;
21480;SDS011;10902;48.158;8.634;2024-02-28T15:46:03;17.88;;;11.85;;
21480;SDS011;10902;48.158;8.634;2024-02-28T15:48:49;16.80;;;11.88;;
21480;SDS011;10902;48.158;8.634;2024-02-28T15:51:34;16.33;;;12.55;;
21480;SDS011;10902;48.158;8.634;2024-02-28T15:54:20;17.30;;;11.77;;
21480;SDS011;10902;48.158;8.634;2024-02-28T15:57:06;14.82;;;11.05;;
21480;SDS011;10902;48.158;8.634;2024-02-28T15:59:51;15.45;;;11.13;;
21480;SDS011;10902;48.158;8.634;2024-02-28T16:02:37;16.67;;;11.95;;
21480;SDS011;10902;48.158;8.634;2024-02-28T16:05:23;17.23;;;11.30;;
21480;SDS011;10902;48.158;8.634;2024-02-28T16:08:09;17.45;;;12.52;;
21480;SDS011;10902;48.158;8.634;2024-02-28T16:10:55;18.17;;;12.60;;